sensor_id;sensor_type;location;lat;lon;timestamp;P1;durP1;ratioP1;P2;durP2;ratioP2
1839;SDS011;920;48.944;9.148;2023-06-05T00:01:29;4.03;;;2.40;;
1839;SDS011;920;48.944;9.148;2023-06-05T00:03:59;3.43;;;2.37;;
1839;SDS011;920;48.944;9.148;2023-06-05T00:06:26;3.70;;;2.40;;
1839;SDS011;920;48.944;9.148;2023-06-05T00:08:52;3.17;;;2.33;;
1839;SDS011;920;48.944;9.148;2023-06-05T00:11:19;3.30;;;2.63;;
1839;SDS011;920;48.944;9.148;2023-06-05T00:13:47;3.10;;;2.47;;
1839;SDS011;920;48.944;9.148;2023-06-05T00:16:14;3.30;;;2.60;;
1839;SDS011;920;48.944;9.148;2023-06-05T00:18:42;3.30;;;2.80;;
1839;SDS011;920;48.944;9.148;2023-06-05T00:21:11;2.77;;;2.17;;
1839;SDS011;920;48.944;9.148;2023-06-05T00:23:38;3.67;;;2.50;;
1839;SDS011;920;48.944;9.148;2023-06-05T00:26:05;3.93;;;2.30;;
1839;SDS011;920;48.944;9.148;2023-06-05T00:28:31;3.20;;;2.00;;
1839;SDS011;920;48.944;9.148;2023-06-05T00:30:59;3.50;;;2.23;;
1839;SDS011;920;48.944;9.148;2023-06-05T00:33:26;2.53;;;2.00;;
1839;SDS011;920;48.944;9.148;2023-06-05T00:35:57;3.30;;;2.30;;
1839;SDS011;920;48.944;9.148;2023-06-05T00:38:24;3.00;;;2.13;;
1839;SDS011;920;48.944;9.148;2023-06-05T00:40:52;4.27;;;2.50;;
1839;SDS011;920;48.944;9.148;2023-06-05T00:43:19;4.60;;;2.80;;
1839;SDS011;920;48.944;9.148;2023-06-05T00:45:46;3.13;;;2.17;;
1839;SDS011;920;48.944;9.148;2023-06-05T00:48:13;2.47;;;1.87;;
1839;SDS011;920;48.944;9.148;2023-06-05T00:50:40;3.87;;;2.37;;
1839;SDS011;920;48.944;9.148;2023-06-05T00:53:08;2.77;;;2.10;;
1839;SDS011;920;48.944;9.148;2023-06-05T00:55:36;3.07;;;2.13;;
1839;SDS011;920;48.944;9.148;2023-06-05T00:58:03;4.00;;;2.50;;
1839;SDS011;920;48.944;9.148;2023-06-05T01:00:30;2.73;;;1.97;;
1839;SDS011;920;48.944;9.148;2023-06-05T01:02:59;3.23;;;2.43;;
1839;SDS011;920;48.944;9.148;2023-06-05T01:05:27;2.60;;;2.03;;
1839;SDS011;920;48.944;9.148;2023-06-05T01:07:55;3.00;;;2.33;;
1839;SDS011;920;48.944;9.148;2023-06-05T01:10:24;2.80;;;2.07;;
1839;SDS011;920;48.944;9.148;2023-06-05T01:12:53;3.00;;;2.27;;
1839;SDS011;920;48.944;9.148;2023-06-05T01:15:24;2.90;;;2.23;;
1839;SDS011;920;48.944;9.148;2023-06-05T01:17:54;3.40;;;2.50;;
1839;SDS011;920;48.944;9.148;2023-06-05T01:20:22;2.40;;;1.97;;
1839;SDS011;920;48.944;9.148;2023-06-05T01:22:51;2.90;;;2.00;;
1839;SDS011;920;48.944;9.148;2023-06-05T01:25:18;2.93;;;2.07;;
1839;SDS011;920;48.944;9.148;2023-06-05T01:28:02;2.60;;;2.30;;
1839;SDS011;920;48.944;9.148;2023-06-05T01:30:36;2.87;;;2.57;;
1839;SDS011;920;48.944;9.148;2023-06-05T01:33:10;3.43;;;2.43;;
1839;SDS011;920;48.944;9.148;2023-06-05T01:35:42;4.30;;;2.60;;
1839;SDS011;920;48.944;9.148;2023-06-05T01:38:11;2.70;;;2.10;;
1839;SDS011;920;48.944;9.148;2023-06-05T01:40:40;3.50;;;2.57;;
1839;SDS011;920;48.944;9.148;2023-06-05T01:43:08;2.90;;;1.90;;
1839;SDS011;920;48.944;9.148;2023-06-05T01:45:36;3.10;;;2.23;;
1839;SDS011;920;48.944;9.148;2023-06-05T01:48:06;3.47;;;2.53;;
1839;SDS011;920;48.944;9.148;2023-06-05T01:50:33;2.73;;;2.00;;
1839;SDS011;920;48.944;9.148;2023-06-05T01:53:03;3.63;;;2.20;;
1839;SDS011;920;48.944;9.148;2023-06-05T01:55:32;2.87;;;1.90;;
1839;SDS011;920;48.944;9.148;2023-06-05T01:58:02;3.40;;;2.17;;
1839;SDS011;920;48.944;9.148;2023-06-05T02:00:29;3.00;;;2.23;;
1839;SDS011;920;48.944;9.148;2023-06-05T02:02:56;3.00;;;2.33;;
1839;SDS011;920;48.944;9.148;2023-06-05T02:05:22;3.40;;;2.73;;
1839;SDS011;920;48.944;9.148;2023-06-05T02:07:49;3.20;;;2.27;;
1839;SDS011;920;48.944;9.148;2023-06-05T02:10:18;4.10;;;2.57;;
1839;SDS011;920;48.944;9.148;2023-06-05T02:12:47;3.17;;;2.37;;
1839;SDS011;920;48.944;9.148;2023-06-05T02:15:14;2.80;;;2.20;;
1839;SDS011;920;48.944;9.148;2023-06-05T02:17:41;2.80;;;1.97;;
1839;SDS011;920;48.944;9.148;2023-06-05T02:20:10;2.80;;;2.30;;
1839;SDS011;920;48.944;9.148;2023-06-05T02:22:37;3.33;;;2.67;;
1839;SDS011;920;48.944;9.148;2023-06-05T02:25:05;3.83;;;2.60;;
1839;SDS011;920;48.944;9.148;2023-06-05T02:27:32;3.47;;;2.50;;
1839;SDS011;920;48.944;9.148;2023-06-05T02:30:00;4.50;;;2.50;;
1839;SDS011;920;48.944;9.148;2023-06-05T02:32:27;5.57;;;2.77;;
1839;SDS011;920;48.944;9.148;2023-06-05T02:34:54;4.83;;;2.70;;
1839;SDS011;920;48.944;9.148;2023-06-05T02:37:22;3.30;;;2.33;;
1839;SDS011;920;48.944;9.148;2023-06-05T02:39:49;4.43;;;2.53;;
1839;SDS011;920;48.944;9.148;2023-06-05T02:42:16;4.53;;;2.73;;
1839;SDS011;920;48.944;9.148;2023-06-05T02:44:44;3.87;;;2.30;;
1839;SDS011;920;48.944;9.148;2023-06-05T02:47:12;3.90;;;3.00;;
1839;SDS011;920;48.944;9.148;2023-06-05T02:49:39;3.60;;;2.57;;
1839;SDS011;920;48.944;9.148;2023-06-05T02:52:06;3.43;;;2.47;;
1839;SDS011;920;48.944;9.148;2023-06-05T02:54:32;4.00;;;2.50;;
1839;SDS011;920;48.944;9.148;2023-06-05T02:57:03;2.63;;;2.20;;
1839;SDS011;920;48.944;9.148;2023-06-05T02:59:33;3.47;;;2.40;;
1839;SDS011;920;48.944;9.148;2023-06-05T03:02:05;3.27;;;2.20;;
1839;SDS011;920;48.944;9.148;2023-06-05T03:04:33;3.20;;;2.50;;
1839;SDS011;920;48.944;9.148;2023-06-05T03:07:00;2.83;;;2.17;;
1839;SDS011;920;48.944;9.148;2023-06-05T03:09:28;3.60;;;2.37;;
1839;SDS011;920;48.944;9.148;2023-06-05T03:11:55;3.50;;;2.50;;
1839;SDS011;920;48.944;9.148;2023-06-05T03:14:25;3.53;;;2.33;;
1839;SDS011;920;48.944;9.148;2023-06-05T03:16:52;3.00;;;2.33;;
1839;SDS011;920;48.944;9.148;2023-06-05T03:19:20;3.20;;;2.30;;
1839;SDS011;920;48.944;9.148;2023-06-05T03:21:48;3.13;;;2.47;;
1839;SDS011;920;48.944;9.148;2023-06-05T03:24:15;2.60;;;1.90;;
1839;SDS011;920;48.944;9.148;2023-06-05T03:26:47;2.90;;;2.20;;
1839;SDS011;920;48.944;9.148;2023-06-05T03:29:14;3.10;;;2.80;;
1839;SDS011;920;48.944;9.148;2023-06-05T03:31:42;3.30;;;2.40;;
1839;SDS011;920;48.944;9.148;2023-06-05T03:34:10;3.33;;;2.40;;
1839;SDS011;920;48.944;9.148;2023-06-05T03:36:37;4.33;;;2.60;;
1839;SDS011;920;48.944;9.148;2023-06-05T03:39:07;3.73;;;2.80;;
1839;SDS011;920;48.944;9.148;2023-06-05T03:41:36;3.97;;;2.40;;
1839;SDS011;920;48.944;9.148;2023-06-05T03:44:03;4.37;;;2.37;;
1839;SDS011;920;48.944;9.148;2023-06-05T03:46:32;3.40;;;2.63;;
1839;SDS011;920;48.944;9.148;2023-06-05T03:49:01;5.00;;;2.70;;
1839;SDS011;920;48.944;9.148;2023-06-05T03:51:34;6.20;;;2.60;;
1839;SDS011;920;48.944;9.148;2023-06-05T03:54:02;3.10;;;2.23;;
1839;SDS011;920;48.944;9.148;2023-06-05T03:56:31;7.00;;;2.83;;
1839;SDS011;920;48.944;9.148;2023-06-05T03:59:03;3.70;;;2.50;;
1839;SDS011;920;48.944;9.148;2023-06-05T04:01:42;4.30;;;2.50;;
1839;SDS011;920;48.944;9.148;2023-06-05T04:04:09;3.27;;;2.60;;
1839;SDS011;920;48.944;9.148;2023-06-05T04:06:36;3.80;;;2.73;;
1839;SDS011;920;48.944;9.148;2023-06-05T04:09:04;3.43;;;2.30;;
1839;SDS011;920;48.944;9.148;2023-06-05T04:11:37;3.30;;;2.60;;
1839;SDS011;920;48.944;9.148;2023-06-05T04:14:04;2.50;;;2.20;;
1839;SDS011;920;48.944;9.148;2023-06-05T04:16:31;3.40;;;2.30;;
1839;SDS011;920;48.944;9.148;2023-06-05T04:18:59;4.13;;;2.50;;
1839;SDS011;920;48.944;9.148;2023-06-05T04:21:26;3.50;;;2.57;;
1839;SDS011;920;48.944;9.148;2023-06-05T04:23:53;3.73;;;2.80;;
1839;SDS011;920;48.944;9.148;2023-06-05T04:26:20;3.20;;;2.80;;
1839;SDS011;920;48.944;9.148;2023-06-05T04:28:50;4.70;;;2.83;;
1839;SDS011;920;48.944;9.148;2023-06-05T04:31:17;4.73;;;2.87;;
1839;SDS011;920;48.944;9.148;2023-06-05T04:33:44;3.97;;;2.40;;
1839;SDS011;920;48.944;9.148;2023-06-05T04:36:11;3.10;;;2.33;;
1839;SDS011;920;48.944;9.148;2023-06-05T04:38:38;4.40;;;2.80;;
1839;SDS011;920;48.944;9.148;2023-06-05T04:41:05;2.93;;;2.40;;
1839;SDS011;920;48.944;9.148;2023-06-05T04:43:32;3.30;;;2.30;;
1839;SDS011;920;48.944;9.148;2023-06-05T04:46:00;3.47;;;2.80;;
1839;SDS011;920;48.944;9.148;2023-06-05T04:48:28;5.10;;;2.67;;
1839;SDS011;920;48.944;9.148;2023-06-05T04:50:55;3.50;;;2.50;;
1839;SDS011;920;48.944;9.148;2023-06-05T04:53:23;4.27;;;2.60;;
1839;SDS011;920;48.944;9.148;2023-06-05T04:55:53;4.03;;;2.97;;
1839;SDS011;920;48.944;9.148;2023-06-05T04:58:21;4.13;;;2.83;;
1839;SDS011;920;48.944;9.148;2023-06-05T05:00:49;3.43;;;2.50;;
1839;SDS011;920;48.944;9.148;2023-06-05T05:03:18;3.53;;;2.30;;
1839;SDS011;920;48.944;9.148;2023-06-05T05:05:45;4.77;;;2.30;;
1839;SDS011;920;48.944;9.148;2023-06-05T05:08:13;3.70;;;2.30;;
1839;SDS011;920;48.944;9.148;2023-06-05T05:10:40;2.77;;;2.33;;
1839;SDS011;920;48.944;9.148;2023-06-05T05:13:08;3.00;;;2.30;;
1839;SDS011;920;48.944;9.148;2023-06-05T05:15:35;4.83;;;2.40;;
1839;SDS011;920;48.944;9.148;2023-06-05T05:18:01;3.83;;;2.63;;
1839;SDS011;920;48.944;9.148;2023-06-05T05:20:30;5.23;;;2.63;;
1839;SDS011;920;48.944;9.148;2023-06-05T05:22:59;4.37;;;2.93;;
1839;SDS011;920;48.944;9.148;2023-06-05T05:25:26;4.10;;;2.80;;
1839;SDS011;920;48.944;9.148;2023-06-05T05:27:53;3.70;;;2.40;;
1839;SDS011;920;48.944;9.148;2023-06-05T05:30:20;3.83;;;2.60;;
1839;SDS011;920;48.944;9.148;2023-06-05T05:32:47;6.87;;;2.70;;
1839;SDS011;920;48.944;9.148;2023-06-05T05:35:15;4.87;;;2.53;;
1839;SDS011;920;48.944;9.148;2023-06-05T05:37:43;4.00;;;2.40;;
1839;SDS011;920;48.944;9.148;2023-06-05T05:40:10;3.20;;;2.70;;
1839;SDS011;920;48.944;9.148;2023-06-05T05:42:38;6.50;;;2.80;;
1839;SDS011;920;48.944;9.148;2023-06-05T05:45:05;4.37;;;2.50;;
1839;SDS011;920;48.944;9.148;2023-06-05T05:47:33;3.57;;;2.47;;
1839;SDS011;920;48.944;9.148;2023-06-05T05:50:00;3.33;;;2.10;;
1839;SDS011;920;48.944;9.148;2023-06-05T05:52:27;3.30;;;2.40;;
1839;SDS011;920;48.944;9.148;2023-06-05T05:54:55;3.70;;;2.40;;
1839;SDS011;920;48.944;9.148;2023-06-05T05:57:23;5.10;;;2.60;;
1839;SDS011;920;48.944;9.148;2023-06-05T05:59:50;3.70;;;2.70;;
1839;SDS011;920;48.944;9.148;2023-06-05T06:02:19;8.80;;;2.83;;
1839;SDS011;920;48.944;9.148;2023-06-05T06:04:49;3.40;;;2.30;;
1839;SDS011;920;48.944;9.148;2023-06-05T06:07:15;4.50;;;2.40;;
1839;SDS011;920;48.944;9.148;2023-06-05T06:09:42;5.93;;;2.80;;
1839;SDS011;920;48.944;9.148;2023-06-05T06:12:11;5.23;;;3.00;;
1839;SDS011;920;48.944;9.148;2023-06-05T06:14:38;7.17;;;2.87;;
1839;SDS011;920;48.944;9.148;2023-06-05T06:17:05;4.53;;;3.03;;
1839;SDS011;920;48.944;9.148;2023-06-05T06:19:35;3.57;;;2.80;;
1839;SDS011;920;48.944;9.148;2023-06-05T06:22:03;5.33;;;2.80;;
1839;SDS011;920;48.944;9.148;2023-06-05T06:24:36;3.80;;;2.60;;
1839;SDS011;920;48.944;9.148;2023-06-05T06:27:03;4.03;;;2.83;;
1839;SDS011;920;48.944;9.148;2023-06-05T06:29:31;5.97;;;3.30;;
1839;SDS011;920;48.944;9.148;2023-06-05T06:31:58;3.50;;;2.50;;
1839;SDS011;920;48.944;9.148;2023-06-05T06:34:25;2.90;;;2.43;;
1839;SDS011;920;48.944;9.148;2023-06-05T06:36:51;3.43;;;2.30;;
1839;SDS011;920;48.944;9.148;2023-06-05T06:39:18;4.10;;;2.40;;
1839;SDS011;920;48.944;9.148;2023-06-05T06:41:45;3.73;;;2.40;;
1839;SDS011;920;48.944;9.148;2023-06-05T06:44:12;3.90;;;1.97;;
1839;SDS011;920;48.944;9.148;2023-06-05T06:46:40;2.97;;;2.30;;
1839;SDS011;920;48.944;9.148;2023-06-05T06:49:07;3.80;;;2.43;;
1839;SDS011;920;48.944;9.148;2023-06-05T06:51:33;3.60;;;2.60;;
1839;SDS011;920;48.944;9.148;2023-06-05T06:54:01;2.70;;;2.40;;
1839;SDS011;920;48.944;9.148;2023-06-05T06:56:28;4.00;;;2.33;;
1839;SDS011;920;48.944;9.148;2023-06-05T06:58:55;3.00;;;2.20;;
1839;SDS011;920;48.944;9.148;2023-06-05T07:01:22;3.00;;;2.60;;
1839;SDS011;920;48.944;9.148;2023-06-05T07:03:52;4.40;;;2.70;;
1839;SDS011;920;48.944;9.148;2023-06-05T07:06:19;4.80;;;2.80;;
1839;SDS011;920;48.944;9.148;2023-06-05T07:08:47;4.73;;;2.80;;
1839;SDS011;920;48.944;9.148;2023-06-05T07:11:13;5.50;;;3.00;;
1839;SDS011;920;48.944;9.148;2023-06-05T07:13:40;5.00;;;2.90;;
1839;SDS011;920;48.944;9.148;2023-06-05T07:16:07;4.90;;;3.00;;
1839;SDS011;920;48.944;9.148;2023-06-05T07:18:34;3.57;;;2.80;;
1839;SDS011;920;48.944;9.148;2023-06-05T07:21:03;3.43;;;2.50;;
1839;SDS011;920;48.944;9.148;2023-06-05T07:23:29;3.47;;;2.90;;
1839;SDS011;920;48.944;9.148;2023-06-05T07:25:57;3.10;;;2.73;;
1839;SDS011;920;48.944;9.148;2023-06-05T07:28:24;3.17;;;2.73;;
1839;SDS011;920;48.944;9.148;2023-06-05T07:30:51;6.67;;;3.00;;
1839;SDS011;920;48.944;9.148;2023-06-05T07:33:17;3.90;;;2.57;;
1839;SDS011;920;48.944;9.148;2023-06-05T07:35:45;3.23;;;2.73;;
1839;SDS011;920;48.944;9.148;2023-06-05T07:38:15;3.30;;;2.60;;
1839;SDS011;920;48.944;9.148;2023-06-05T07:40:41;3.23;;;2.60;;
1839;SDS011;920;48.944;9.148;2023-06-05T07:43:08;2.93;;;2.63;;
1839;SDS011;920;48.944;9.148;2023-06-05T07:45:39;3.77;;;2.70;;
1839;SDS011;920;48.944;9.148;2023-06-05T07:48:05;3.00;;;2.50;;
1839;SDS011;920;48.944;9.148;2023-06-05T07:50:32;3.80;;;2.83;;
1839;SDS011;920;48.944;9.148;2023-06-05T07:52:59;4.20;;;2.73;;
1839;SDS011;920;48.944;9.148;2023-06-05T07:55:27;3.30;;;2.80;;
1839;SDS011;920;48.944;9.148;2023-06-05T07:57:54;4.33;;;3.27;;
1839;SDS011;920;48.944;9.148;2023-06-05T08:00:22;3.33;;;2.97;;
1839;SDS011;920;48.944;9.148;2023-06-05T08:02:49;3.77;;;3.03;;
1839;SDS011;920;48.944;9.148;2023-06-05T08:05:16;5.53;;;3.50;;
1839;SDS011;920;48.944;9.148;2023-06-05T08:07:44;4.10;;;3.30;;
1839;SDS011;920;48.944;9.148;2023-06-05T08:10:11;4.00;;;3.50;;
1839;SDS011;920;48.944;9.148;2023-06-05T08:12:40;3.50;;;2.80;;
1839;SDS011;920;48.944;9.148;2023-06-05T08:15:07;5.17;;;3.80;;
1839;SDS011;920;48.944;9.148;2023-06-05T08:17:34;4.97;;;3.10;;
1839;SDS011;920;48.944;9.148;2023-06-05T08:20:01;4.10;;;2.50;;
1839;SDS011;920;48.944;9.148;2023-06-05T08:22:30;5.83;;;3.03;;
1839;SDS011;920;48.944;9.148;2023-06-05T08:24:57;3.60;;;3.00;;
1839;SDS011;920;48.944;9.148;2023-06-05T08:27:25;3.80;;;2.70;;
1839;SDS011;920;48.944;9.148;2023-06-05T08:29:53;3.97;;;2.93;;
1839;SDS011;920;48.944;9.148;2023-06-05T08:32:20;4.83;;;3.20;;
1839;SDS011;920;48.944;9.148;2023-06-05T08:34:46;3.47;;;3.03;;
1839;SDS011;920;48.944;9.148;2023-06-05T08:37:13;5.53;;;3.40;;
1839;SDS011;920;48.944;9.148;2023-06-05T08:39:40;7.23;;;3.07;;
1839;SDS011;920;48.944;9.148;2023-06-05T08:42:06;3.70;;;3.23;;
1839;SDS011;920;48.944;9.148;2023-06-05T08:44:33;4.00;;;3.10;;
1839;SDS011;920;48.944;9.148;2023-06-05T08:47:02;4.13;;;3.30;;
1839;SDS011;920;48.944;9.148;2023-06-05T08:49:29;3.57;;;3.27;;
1839;SDS011;920;48.944;9.148;2023-06-05T08:52:02;3.17;;;2.80;;
1839;SDS011;920;48.944;9.148;2023-06-05T08:54:31;4.30;;;3.90;;
1839;SDS011;920;48.944;9.148;2023-06-05T08:57:03;3.87;;;3.40;;
1839;SDS011;920;48.944;9.148;2023-06-05T08:59:30;4.23;;;3.80;;
1839;SDS011;920;48.944;9.148;2023-06-05T09:01:57;4.40;;;4.00;;
1839;SDS011;920;48.944;9.148;2023-06-05T09:04:26;3.90;;;3.50;;
1839;SDS011;920;48.944;9.148;2023-06-05T09:06:55;5.03;;;3.87;;
1839;SDS011;920;48.944;9.148;2023-06-05T09:09:22;4.70;;;3.23;;
1839;SDS011;920;48.944;9.148;2023-06-05T09:12:00;3.53;;;3.03;;
1839;SDS011;920;48.944;9.148;2023-06-05T09:14:28;4.40;;;3.60;;
1839;SDS011;920;48.944;9.148;2023-06-05T09:16:56;3.27;;;2.40;;
1839;SDS011;920;48.944;9.148;2023-06-05T09:19:23;3.60;;;3.00;;
1839;SDS011;920;48.944;9.148;2023-06-05T09:21:54;4.80;;;3.53;;
1839;SDS011;920;48.944;9.148;2023-06-05T09:24:21;4.60;;;3.47;;
1839;SDS011;920;48.944;9.148;2023-06-05T09:26:54;4.53;;;3.33;;
1839;SDS011;920;48.944;9.148;2023-06-05T09:29:22;4.10;;;3.53;;
1839;SDS011;920;48.944;9.148;2023-06-05T09:31:50;4.83;;;3.50;;
1839;SDS011;920;48.944;9.148;2023-06-05T09:34:20;3.80;;;3.40;;
1839;SDS011;920;48.944;9.148;2023-06-05T09:36:47;4.77;;;3.57;;
1839;SDS011;920;48.944;9.148;2023-06-05T09:39:16;3.87;;;3.43;;
1839;SDS011;920;48.944;9.148;2023-06-05T09:41:44;5.80;;;3.87;;
1839;SDS011;920;48.944;9.148;2023-06-05T09:44:11;4.60;;;3.80;;
1839;SDS011;920;48.944;9.148;2023-06-05T09:46:49;3.70;;;3.40;;
1839;SDS011;920;48.944;9.148;2023-06-05T09:49:17;3.93;;;3.53;;
1839;SDS011;920;48.944;9.148;2023-06-05T09:51:43;4.50;;;3.60;;
1839;SDS011;920;48.944;9.148;2023-06-05T09:54:12;6.03;;;3.53;;
1839;SDS011;920;48.944;9.148;2023-06-05T09:56:40;4.07;;;3.67;;
1839;SDS011;920;48.944;9.148;2023-06-05T09:59:07;5.03;;;4.10;;
1839;SDS011;920;48.944;9.148;2023-06-05T10:01:35;6.40;;;4.10;;
1839;SDS011;920;48.944;9.148;2023-06-05T10:04:05;4.17;;;3.77;;
1839;SDS011;920;48.944;9.148;2023-06-05T10:06:33;3.77;;;3.40;;
1839;SDS011;920;48.944;9.148;2023-06-05T10:09:00;9.37;;;4.00;;
1839;SDS011;920;48.944;9.148;2023-06-05T10:11:27;4.20;;;3.67;;
1839;SDS011;920;48.944;9.148;2023-06-05T10:13:56;5.10;;;4.00;;
1839;SDS011;920;48.944;9.148;2023-06-05T10:16:25;4.20;;;3.50;;
1839;SDS011;920;48.944;9.148;2023-06-05T10:18:53;4.10;;;3.50;;
1839;SDS011;920;48.944;9.148;2023-06-05T10:21:21;4.40;;;3.60;;
1839;SDS011;920;48.944;9.148;2023-06-05T10:23:50;3.93;;;3.53;;
1839;SDS011;920;48.944;9.148;2023-06-05T10:26:22;4.70;;;3.80;;
1839;SDS011;920;48.944;9.148;2023-06-05T10:29:03;6.87;;;3.63;;
1839;SDS011;920;48.944;9.148;2023-06-05T10:31:39;3.37;;;3.00;;
1839;SDS011;920;48.944;9.148;2023-06-05T10:34:22;4.17;;;3.20;;
1839;SDS011;920;48.944;9.148;2023-06-05T10:39:54;5.43;;;3.63;;
1839;SDS011;920;48.944;9.148;2023-06-05T10:42:24;4.20;;;2.73;;
1839;SDS011;920;48.944;9.148;2023-06-05T10:44:53;4.47;;;3.27;;
1839;SDS011;920;48.944;9.148;2023-06-05T10:50:24;4.00;;;3.60;;
1839;SDS011;920;48.944;9.148;2023-06-05T10:52:52;4.00;;;3.60;;
1839;SDS011;920;48.944;9.148;2023-06-05T10:55:20;3.97;;;3.20;;
1839;SDS011;920;48.944;9.148;2023-06-05T10:58:04;3.30;;;2.93;;
1839;SDS011;920;48.944;9.148;2023-06-05T11:01:14;3.37;;;2.80;;
1839;SDS011;920;48.944;9.148;2023-06-05T11:03:54;4.30;;;3.13;;
1839;SDS011;920;48.944;9.148;2023-06-05T11:06:22;4.90;;;3.40;;
1839;SDS011;920;48.944;9.148;2023-06-05T11:09:08;4.00;;;3.10;;
1839;SDS011;920;48.944;9.148;2023-06-05T11:11:55;4.20;;;3.23;;
1839;SDS011;920;48.944;9.148;2023-06-05T11:14:22;4.43;;;3.40;;
1839;SDS011;920;48.944;9.148;2023-06-05T11:16:51;5.40;;;3.47;;
1839;SDS011;920;48.944;9.148;2023-06-05T11:19:36;4.00;;;3.40;;
1839;SDS011;920;48.944;9.148;2023-06-05T11:22:04;3.70;;;3.40;;
1839;SDS011;920;48.944;9.148;2023-06-05T11:24:32;5.80;;;3.80;;
1839;SDS011;920;48.944;9.148;2023-06-05T11:27:00;4.10;;;3.20;;
1839;SDS011;920;48.944;9.148;2023-06-05T11:29:28;4.87;;;3.50;;
1839;SDS011;920;48.944;9.148;2023-06-05T11:31:56;4.97;;;3.73;;
1839;SDS011;920;48.944;9.148;2023-06-05T11:34:24;4.10;;;3.30;;
1839;SDS011;920;48.944;9.148;2023-06-05T11:36:53;3.20;;;2.90;;
1839;SDS011;920;48.944;9.148;2023-06-05T11:39:20;5.20;;;3.33;;
1839;SDS011;920;48.944;9.148;2023-06-05T11:41:48;3.70;;;3.30;;
1839;SDS011;920;48.944;9.148;2023-06-05T11:44:29;6.20;;;3.47;;
1839;SDS011;920;48.944;9.148;2023-06-05T11:46:58;3.90;;;3.50;;
1839;SDS011;920;48.944;9.148;2023-06-05T11:49:25;4.27;;;3.67;;
1839;SDS011;920;48.944;9.148;2023-06-05T11:51:53;4.20;;;3.70;;
1839;SDS011;920;48.944;9.148;2023-06-05T11:54:26;4.73;;;4.00;;
1839;SDS011;920;48.944;9.148;2023-06-05T11:56:59;6.60;;;4.17;;
1839;SDS011;920;48.944;9.148;2023-06-05T11:59:30;4.10;;;3.70;;
1839;SDS011;920;48.944;9.148;2023-06-05T12:01:58;4.20;;;3.80;;
1839;SDS011;920;48.944;9.148;2023-06-05T12:04:24;6.63;;;3.90;;
1839;SDS011;920;48.944;9.148;2023-06-05T12:06:51;4.23;;;3.73;;
1839;SDS011;920;48.944;9.148;2023-06-05T12:09:18;4.00;;;3.60;;
1839;SDS011;920;48.944;9.148;2023-06-05T12:11:45;5.13;;;3.97;;
1839;SDS011;920;48.944;9.148;2023-06-05T12:14:12;5.03;;;3.50;;
1839;SDS011;920;48.944;9.148;2023-06-05T12:16:40;4.37;;;3.80;;
1839;SDS011;920;48.944;9.148;2023-06-05T12:19:13;4.40;;;4.00;;
1839;SDS011;920;48.944;9.148;2023-06-05T12:21:42;4.37;;;3.97;;
1839;SDS011;920;48.944;9.148;2023-06-05T12:24:10;4.00;;;3.60;;
1839;SDS011;920;48.944;9.148;2023-06-05T12:26:52;4.20;;;3.80;;
1839;SDS011;920;48.944;9.148;2023-06-05T12:29:20;4.17;;;3.77;;
1839;SDS011;920;48.944;9.148;2023-06-05T12:31:47;4.40;;;3.80;;
1839;SDS011;920;48.944;9.148;2023-06-05T12:34:16;5.00;;;3.77;;
1839;SDS011;920;48.944;9.148;2023-06-05T12:36:43;7.87;;;4.33;;
1839;SDS011;920;48.944;9.148;2023-06-05T12:39:10;4.87;;;3.77;;
1839;SDS011;920;48.944;9.148;2023-06-05T12:41:37;6.60;;;4.40;;
1839;SDS011;920;48.944;9.148;2023-06-05T12:44:04;8.33;;;4.30;;
1839;SDS011;920;48.944;9.148;2023-06-05T12:46:32;4.30;;;3.83;;
1839;SDS011;920;48.944;9.148;2023-06-05T12:48:59;4.13;;;3.73;;
1839;SDS011;920;48.944;9.148;2023-06-05T12:51:28;8.00;;;3.93;;
1839;SDS011;920;48.944;9.148;2023-06-05T12:53:55;4.60;;;3.60;;
1839;SDS011;920;48.944;9.148;2023-06-05T12:56:23;4.80;;;4.30;;
1839;SDS011;920;48.944;9.148;2023-06-05T12:58:53;6.23;;;4.30;;
1839;SDS011;920;48.944;9.148;2023-06-05T13:01:20;5.70;;;4.00;;
1839;SDS011;920;48.944;9.148;2023-06-05T13:03:47;6.90;;;4.00;;
1839;SDS011;920;48.944;9.148;2023-06-05T13:06:14;6.20;;;4.03;;
1839;SDS011;920;48.944;9.148;2023-06-05T13:08:42;6.73;;;4.10;;
1839;SDS011;920;48.944;9.148;2023-06-05T13:11:10;4.20;;;3.80;;
1839;SDS011;920;48.944;9.148;2023-06-05T13:13:37;4.30;;;3.73;;
1839;SDS011;920;48.944;9.148;2023-06-05T13:16:04;5.30;;;4.47;;
1839;SDS011;920;48.944;9.148;2023-06-05T13:18:33;4.30;;;3.70;;
1839;SDS011;920;48.944;9.148;2023-06-05T13:21:00;4.13;;;3.73;;
1839;SDS011;920;48.944;9.148;2023-06-05T13:23:27;6.53;;;3.60;;
1839;SDS011;920;48.944;9.148;2023-06-05T13:25:55;4.10;;;3.70;;
1839;SDS011;920;48.944;9.148;2023-06-05T13:28:22;4.97;;;3.53;;
1839;SDS011;920;48.944;9.148;2023-06-05T13:30:48;4.47;;;4.07;;
1839;SDS011;920;48.944;9.148;2023-06-05T13:33:17;4.37;;;3.97;;
1839;SDS011;920;48.944;9.148;2023-06-05T13:35:44;5.70;;;4.10;;
1839;SDS011;920;48.944;9.148;2023-06-05T13:38:11;4.17;;;3.77;;
1839;SDS011;920;48.944;9.148;2023-06-05T13:40:37;4.90;;;3.73;;
1839;SDS011;920;48.944;9.148;2023-06-05T13:43:07;8.33;;;4.27;;
1839;SDS011;920;48.944;9.148;2023-06-05T13:45:34;5.07;;;3.83;;
1839;SDS011;920;48.944;9.148;2023-06-05T13:48:01;4.97;;;4.17;;
1839;SDS011;920;48.944;9.148;2023-06-05T13:50:27;4.50;;;4.10;;
1839;SDS011;920;48.944;9.148;2023-06-05T13:52:54;4.43;;;4.03;;
1839;SDS011;920;48.944;9.148;2023-06-05T13:55:21;5.90;;;3.90;;
1839;SDS011;920;48.944;9.148;2023-06-05T13:57:48;4.23;;;3.83;;
1839;SDS011;920;48.944;9.148;2023-06-05T14:00:16;4.90;;;4.00;;
1839;SDS011;920;48.944;9.148;2023-06-05T14:02:43;4.00;;;3.40;;
1839;SDS011;920;48.944;9.148;2023-06-05T14:05:11;5.43;;;4.00;;
1839;SDS011;920;48.944;9.148;2023-06-05T14:07:38;4.27;;;3.50;;
1839;SDS011;920;48.944;9.148;2023-06-05T14:10:05;3.67;;;3.33;;
1839;SDS011;920;48.944;9.148;2023-06-05T14:12:33;4.07;;;3.30;;
1839;SDS011;920;48.944;9.148;2023-06-05T14:14:59;4.17;;;3.67;;
1839;SDS011;920;48.944;9.148;2023-06-05T14:17:28;3.70;;;3.40;;
1839;SDS011;920;48.944;9.148;2023-06-05T14:19:54;3.50;;;3.20;;
1839;SDS011;920;48.944;9.148;2023-06-05T14:22:21;4.27;;;3.70;;
1839;SDS011;920;48.944;9.148;2023-06-05T14:24:48;3.80;;;3.40;;
1839;SDS011;920;48.944;9.148;2023-06-05T14:27:15;3.73;;;3.10;;
1839;SDS011;920;48.944;9.148;2023-06-05T14:29:43;3.60;;;3.03;;
1839;SDS011;920;48.944;9.148;2023-06-05T14:32:10;5.70;;;3.43;;
1839;SDS011;920;48.944;9.148;2023-06-05T14:34:38;4.13;;;3.70;;
1839;SDS011;920;48.944;9.148;2023-06-05T14:37:05;3.77;;;3.37;;
1839;SDS011;920;48.944;9.148;2023-06-05T14:39:32;3.57;;;3.20;;
1839;SDS011;920;48.944;9.148;2023-06-05T14:41:58;3.40;;;3.03;;
1839;SDS011;920;48.944;9.148;2023-06-05T14:44:26;3.67;;;3.30;;
1839;SDS011;920;48.944;9.148;2023-06-05T14:46:53;6.00;;;3.43;;
1839;SDS011;920;48.944;9.148;2023-06-05T14:49:20;4.97;;;3.47;;
1839;SDS011;920;48.944;9.148;2023-06-05T14:51:48;3.70;;;3.10;;
1839;SDS011;920;48.944;9.148;2023-06-05T14:54:15;4.13;;;3.00;;
1839;SDS011;920;48.944;9.148;2023-06-05T14:56:42;4.80;;;3.40;;
1839;SDS011;920;48.944;9.148;2023-06-05T14:59:09;3.77;;;3.37;;
1839;SDS011;920;48.944;9.148;2023-06-05T15:01:35;3.27;;;2.97;;
1839;SDS011;920;48.944;9.148;2023-06-05T15:04:02;8.43;;;3.53;;
1839;SDS011;920;48.944;9.148;2023-06-05T15:06:29;3.33;;;3.03;;
1839;SDS011;920;48.944;9.148;2023-06-05T15:08:57;4.13;;;3.17;;
1839;SDS011;920;48.944;9.148;2023-06-05T15:11:24;3.43;;;3.13;;
1839;SDS011;920;48.944;9.148;2023-06-05T15:13:50;3.77;;;3.40;;
1839;SDS011;920;48.944;9.148;2023-06-05T15:16:17;3.20;;;2.90;;
1839;SDS011;920;48.944;9.148;2023-06-05T15:18:45;4.43;;;3.53;;
1839;SDS011;920;48.944;9.148;2023-06-05T15:21:12;3.33;;;3.03;;
1839;SDS011;920;48.944;9.148;2023-06-05T15:23:39;3.97;;;3.13;;
1839;SDS011;920;48.944;9.148;2023-06-05T15:26:07;3.50;;;3.20;;
1839;SDS011;920;48.944;9.148;2023-06-05T15:28:35;4.07;;;3.20;;
1839;SDS011;920;48.944;9.148;2023-06-05T15:31:02;4.00;;;3.43;;
1839;SDS011;920;48.944;9.148;2023-06-05T15:33:31;4.70;;;3.47;;
1839;SDS011;920;48.944;9.148;2023-06-05T15:35:58;4.33;;;3.50;;
1839;SDS011;920;48.944;9.148;2023-06-05T15:38:25;3.63;;;2.90;;
1839;SDS011;920;48.944;9.148;2023-06-05T15:40:51;4.73;;;3.73;;
1839;SDS011;920;48.944;9.148;2023-06-05T15:43:20;4.77;;;3.30;;